Saint Angelo, United Kingdom
Current Conditions -  °F | °C
As of 10:00 AM on Monday 22 Dec 2014 (Local Time) from EISG Reporting Station
Drizzle Drizzle  
Wind Chill: 52°   Ceiling: 1800
Heat Index: 52°   Visibility: 2.1mi
Dew Point: 50°   Wind: 22mph
Humidity: 94%   Direction: 240°WSW
Pressure: 29.74"   Gusts: NA
Location:  54.4°N, 7.65°W
Report Text: EISG 221000Z 24019KT 3500 -DZ BKN018 OVC025 11/10 Q1007
Loading
Personal Weather Stations






























Interactive Weather Map New forecast layout! Learn more

10-Day Weather Forecast

Advertisements
Track Severe Weather on mobile